LGSK

Skiathos Island National Airport

Skiathos, Greece
TAF LGSK 182000Z 1821/1906 36010KT 9999 FEW030 TEMPO 1822/1905 36010G20KT
Issued Valid From Valid To
Jul-18 @ 20:00 UTC
(2 hours ago)
Jul-18 @ 21:00 UTC
(an hour ago)
Jul-19 @ 06:00 UTC
(in 8 hours)
Jul-18 @ 21:00 to Jul-19 @ 06:00
TAF LGSK 182000Z 1821/1906 36010KT 9999 FEW030
Wind Visibility Clouds
360° at 10 knots 10,000+ meters
  • Few at 3,000' AGL
Temporary Jul-18 @ 22:00 to Jul-19 @ 05:00
TEMPO 1822/1905 36010G20KT
Wind
360° at 10 knots
 Gusting to 20 knots
TAF LGSK 182000Z 1821/1906 36010KT 9999 FEW030 TEMPO 1822/1905 36010G20KT
Issued Jul-18 @ 20:00 UTC
(2 hours ago)
Valid From Jul-18 @ 21:00 UTC
(an hour ago)
Valid To Jul-19 @ 06:00 UTC
(in 8 hours)
Jul-18 @ 21:00 - Jul-19 @ 06:00
Wind Visibility
360° at 10 knots 10,000+ meters
Clouds
  • Few at 3,000' AGL
Temporary Jul-18 @ 22:00 - Jul-19 @ 05:00
Wind
360° at 10 knots
 Gusting to 20 knots